sensor_id;sensor_type;location;lat;lon;timestamp;P1;durP1;ratioP1;P2;durP2;ratioP2
36457;SDS011;22480;50.546;12.292;2022-10-18T00:01:05;35.03;;;19.55;;
36457;SDS011;22480;50.546;12.292;2022-10-18T00:03:32;33.42;;;19.63;;
36457;SDS011;22480;50.546;12.292;2022-10-18T00:05:58;33.83;;;18.42;;
36457;SDS011;22480;50.546;12.292;2022-10-18T00:08:25;33.55;;;19.38;;
36457;SDS011;22480;50.546;12.292;2022-10-18T00:10:51;35.72;;;18.98;;
36457;SDS011;22480;50.546;12.292;2022-10-18T00:13:17;36.83;;;20.40;;
36457;SDS011;22480;50.546;12.292;2022-10-18T00:15:55;36.70;;;19.48;;
36457;SDS011;22480;50.546;12.292;2022-10-18T00:18:23;33.05;;;18.58;;
36457;SDS011;22480;50.546;12.292;2022-10-18T00:20:55;31.42;;;19.80;;
36457;SDS011;22480;50.546;12.292;2022-10-18T00:23:25;35.10;;;20.05;;
36457;SDS011;22480;50.546;12.292;2022-10-18T00:25:59;35.70;;;20.50;;
36457;SDS011;22480;50.546;12.292;2022-10-18T00:28:39;34.65;;;19.65;;
36457;SDS011;22480;50.546;12.292;2022-10-18T00:33:42;30.25;;;17.92;;
36457;SDS011;22480;50.546;12.292;2022-10-18T00:36:09;32.45;;;17.88;;
36457;SDS011;22480;50.546;12.292;2022-10-18T00:38:35;34.13;;;19.23;;
36457;SDS011;22480;50.546;12.292;2022-10-18T00:41:01;41.17;;;20.92;;
36457;SDS011;22480;50.546;12.292;2022-10-18T00:43:28;40.95;;;21.10;;
36457;SDS011;22480;50.546;12.292;2022-10-18T00:45:54;42.47;;;20.85;;
36457;SDS011;22480;50.546;12.292;2022-10-18T00:48:20;46.17;;;22.17;;
36457;SDS011;22480;50.546;12.292;2022-10-18T00:50:46;37.33;;;21.40;;
36457;SDS011;22480;50.546;12.292;2022-10-18T00:53:15;46.63;;;23.17;;
36457;SDS011;22480;50.546;12.292;2022-10-18T00:55:43;43.53;;;24.75;;
36457;SDS011;22480;50.546;12.292;2022-10-18T00:58:10;44.60;;;22.77;;
36457;SDS011;22480;50.546;12.292;2022-10-18T01:00:38;38.47;;;20.95;;
36457;SDS011;22480;50.546;12.292;2022-10-18T01:03:05;40.75;;;23.08;;
36457;SDS011;22480;50.546;12.292;2022-10-18T01:05:32;41.72;;;21.80;;
36457;SDS011;22480;50.546;12.292;2022-10-18T01:13:34;39.20;;;21.48;;
36457;SDS011;22480;50.546;12.292;2022-10-18T01:19:42;37.58;;;20.75;;
36457;SDS011;22480;50.546;12.292;2022-10-18T01:22:42;41.47;;;22.98;;
36457;SDS011;22480;50.546;12.292;2022-10-18T01:35:54;54.60;;;28.25;;
36457;SDS011;22480;50.546;12.292;2022-10-18T01:38:28;50.70;;;27.20;;
36457;SDS011;22480;50.546;12.292;2022-10-18T01:40:56;57.70;;;28.27;;
36457;SDS011;22480;50.546;12.292;2022-10-18T01:43:23;52.70;;;28.05;;
36457;SDS011;22480;50.546;12.292;2022-10-18T01:45:52;48.90;;;27.40;;
36457;SDS011;22480;50.546;12.292;2022-10-18T01:48:18;49.17;;;28.08;;
36457;SDS011;22480;50.546;12.292;2022-10-18T01:50:44;53.70;;;27.52;;
36457;SDS011;22480;50.546;12.292;2022-10-18T01:53:20;56.22;;;27.80;;
36457;SDS011;22480;50.546;12.292;2022-10-18T01:55:50;56.38;;;28.00;;
36457;SDS011;22480;50.546;12.292;2022-10-18T02:04:38;55.67;;;30.60;;
36457;SDS011;22480;50.546;12.292;2022-10-18T02:07:19;64.75;;;31.58;;
36457;SDS011;22480;50.546;12.292;2022-10-18T02:12:33;65.13;;;31.52;;
36457;SDS011;22480;50.546;12.292;2022-10-18T02:15:01;59.33;;;29.67;;
36457;SDS011;22480;50.546;12.292;2022-10-18T02:17:29;62.85;;;32.00;;
36457;SDS011;22480;50.546;12.292;2022-10-18T02:19:56;63.83;;;30.20;;
36457;SDS011;22480;50.546;12.292;2022-10-18T02:22:24;68.78;;;30.38;;
36457;SDS011;22480;50.546;12.292;2022-10-18T02:24:54;60.03;;;29.85;;
36457;SDS011;22480;50.546;12.292;2022-10-18T02:27:22;61.97;;;28.88;;
36457;SDS011;22480;50.546;12.292;2022-10-18T02:29:49;61.53;;;29.50;;
36457;SDS011;22480;50.546;12.292;2022-10-18T02:35:03;61.63;;;30.55;;
36457;SDS011;22480;50.546;12.292;2022-10-18T02:37:36;68.47;;;31.33;;
36457;SDS011;22480;50.546;12.292;2022-10-18T02:40:03;61.92;;;30.88;;
36457;SDS011;22480;50.546;12.292;2022-10-18T02:42:34;53.58;;;27.38;;
36457;SDS011;22480;50.546;12.292;2022-10-18T02:45:08;51.80;;;28.30;;
36457;SDS011;22480;50.546;12.292;2022-10-18T02:47:35;49.28;;;26.02;;
36457;SDS011;22480;50.546;12.292;2022-10-18T02:50:00;46.42;;;25.33;;
36457;SDS011;22480;50.546;12.292;2022-10-18T02:52:26;41.30;;;23.67;;
36457;SDS011;22480;50.546;12.292;2022-10-18T02:54:52;42.88;;;24.83;;
36457;SDS011;22480;50.546;12.292;2022-10-18T02:57:17;44.33;;;25.15;;
36457;SDS011;22480;50.546;12.292;2022-10-18T02:59:43;47.58;;;26.15;;
36457;SDS011;22480;50.546;12.292;2022-10-18T03:02:09;56.20;;;27.67;;
36457;SDS011;22480;50.546;12.292;2022-10-18T03:04:34;54.00;;;27.73;;
36457;SDS011;22480;50.546;12.292;2022-10-18T03:07:00;61.60;;;31.80;;
36457;SDS011;22480;50.546;12.292;2022-10-18T03:09:26;52.13;;;27.95;;
36457;SDS011;22480;50.546;12.292;2022-10-18T03:11:51;53.65;;;26.50;;
36457;SDS011;22480;50.546;12.292;2022-10-18T03:14:17;52.67;;;27.65;;
36457;SDS011;22480;50.546;12.292;2022-10-18T03:16:43;54.92;;;26.67;;
36457;SDS011;22480;50.546;12.292;2022-10-18T03:19:08;52.28;;;26.25;;
36457;SDS011;22480;50.546;12.292;2022-10-18T03:21:34;52.80;;;26.45;;
36457;SDS011;22480;50.546;12.292;2022-10-18T03:24:00;54.90;;;28.13;;
36457;SDS011;22480;50.546;12.292;2022-10-18T03:26:27;55.17;;;26.45;;
36457;SDS011;22480;50.546;12.292;2022-10-18T03:28:52;49.50;;;25.77;;
36457;SDS011;22480;50.546;12.292;2022-10-18T03:31:18;53.10;;;26.65;;
36457;SDS011;22480;50.546;12.292;2022-10-18T03:33:44;48.90;;;26.10;;
36457;SDS011;22480;50.546;12.292;2022-10-18T03:36:10;46.40;;;23.58;;
36457;SDS011;22480;50.546;12.292;2022-10-18T03:38:36;56.75;;;29.35;;
36457;SDS011;22480;50.546;12.292;2022-10-18T03:41:02;50.13;;;26.55;;
36457;SDS011;22480;50.546;12.292;2022-10-18T03:43:28;50.70;;;27.52;;
36457;SDS011;22480;50.546;12.292;2022-10-18T03:45:54;55.55;;;27.95;;
36457;SDS011;22480;50.546;12.292;2022-10-18T03:48:20;50.78;;;27.27;;
36457;SDS011;22480;50.546;12.292;2022-10-18T03:50:46;49.25;;;26.90;;
36457;SDS011;22480;50.546;12.292;2022-10-18T03:53:11;47.58;;;26.10;;
36457;SDS011;22480;50.546;12.292;2022-10-18T03:55:37;48.63;;;26.13;;
36457;SDS011;22480;50.546;12.292;2022-10-18T03:58:04;47.20;;;26.27;;
36457;SDS011;22480;50.546;12.292;2022-10-18T04:00:30;54.65;;;27.60;;
36457;SDS011;22480;50.546;12.292;2022-10-18T04:02:56;55.85;;;28.33;;
36457;SDS011;22480;50.546;12.292;2022-10-18T04:05:22;59.83;;;31.52;;
36457;SDS011;22480;50.546;12.292;2022-10-18T04:07:48;55.35;;;29.13;;
36457;SDS011;22480;50.546;12.292;2022-10-18T04:10:14;57.08;;;32.08;;
36457;SDS011;22480;50.546;12.292;2022-10-18T04:12:40;55.45;;;27.35;;
36457;SDS011;22480;50.546;12.292;2022-10-18T04:15:06;52.20;;;28.20;;
36457;SDS011;22480;50.546;12.292;2022-10-18T04:17:32;51.70;;;24.20;;
36457;SDS011;22480;50.546;12.292;2022-10-18T04:19:58;44.03;;;26.27;;
36457;SDS011;22480;50.546;12.292;2022-10-18T04:22:23;42.20;;;25.02;;
36457;SDS011;22480;50.546;12.292;2022-10-18T04:24:49;43.67;;;24.58;;
36457;SDS011;22480;50.546;12.292;2022-10-18T04:27:17;41.83;;;23.40;;
36457;SDS011;22480;50.546;12.292;2022-10-18T04:29:43;35.60;;;22.05;;
36457;SDS011;22480;50.546;12.292;2022-10-18T04:32:09;37.47;;;22.58;;
36457;SDS011;22480;50.546;12.292;2022-10-18T04:34:35;36.33;;;22.27;;
36457;SDS011;22480;50.546;12.292;2022-10-18T04:37:00;41.40;;;23.23;;
36457;SDS011;22480;50.546;12.292;2022-10-18T04:39:26;37.40;;;23.98;;
36457;SDS011;22480;50.546;12.292;2022-10-18T04:41:52;40.58;;;25.83;;
36457;SDS011;22480;50.546;12.292;2022-10-18T04:44:17;45.90;;;28.67;;
36457;SDS011;22480;50.546;12.292;2022-10-18T04:46:43;41.97;;;24.90;;
36457;SDS011;22480;50.546;12.292;2022-10-18T04:49:09;37.45;;;24.02;;
36457;SDS011;22480;50.546;12.292;2022-10-18T04:51:34;35.78;;;23.63;;
36457;SDS011;22480;50.546;12.292;2022-10-18T04:54:00;38.17;;;22.95;;
36457;SDS011;22480;50.546;12.292;2022-10-18T04:56:26;39.05;;;23.13;;
36457;SDS011;22480;50.546;12.292;2022-10-18T04:58:52;48.42;;;29.20;;
36457;SDS011;22480;50.546;12.292;2022-10-18T05:01:17;43.35;;;28.67;;
36457;SDS011;22480;50.546;12.292;2022-10-18T05:03:43;43.78;;;27.10;;
36457;SDS011;22480;50.546;12.292;2022-10-18T05:06:09;41.03;;;25.10;;
36457;SDS011;22480;50.546;12.292;2022-10-18T05:08:35;50.60;;;28.73;;
36457;SDS011;22480;50.546;12.292;2022-10-18T05:11:01;51.15;;;31.98;;
36457;SDS011;22480;50.546;12.292;2022-10-18T05:13:28;51.40;;;31.77;;
36457;SDS011;22480;50.546;12.292;2022-10-18T05:15:54;49.10;;;32.13;;
36457;SDS011;22480;50.546;12.292;2022-10-18T05:18:20;45.55;;;28.40;;
36457;SDS011;22480;50.546;12.292;2022-10-18T05:20:45;41.25;;;27.33;;
36457;SDS011;22480;50.546;12.292;2022-10-18T05:23:11;47.08;;;28.25;;
36457;SDS011;22480;50.546;12.292;2022-10-18T05:25:37;48.05;;;28.38;;
36457;SDS011;22480;50.546;12.292;2022-10-18T05:28:04;40.67;;;25.33;;
36457;SDS011;22480;50.546;12.292;2022-10-18T05:30:30;39.05;;;23.25;;
36457;SDS011;22480;50.546;12.292;2022-10-18T05:32:56;41.28;;;23.05;;
36457;SDS011;22480;50.546;12.292;2022-10-18T05:35:22;38.40;;;22.10;;
36457;SDS011;22480;50.546;12.292;2022-10-18T05:37:47;37.67;;;23.67;;
36457;SDS011;22480;50.546;12.292;2022-10-18T05:40:13;35.53;;;21.88;;
36457;SDS011;22480;50.546;12.292;2022-10-18T05:42:39;38.47;;;22.35;;
36457;SDS011;22480;50.546;12.292;2022-10-18T05:45:05;37.83;;;21.95;;
36457;SDS011;22480;50.546;12.292;2022-10-18T05:47:31;34.63;;;22.17;;
36457;SDS011;22480;50.546;12.292;2022-10-18T05:49:56;40.33;;;22.90;;
36457;SDS011;22480;50.546;12.292;2022-10-18T05:52:22;34.55;;;21.98;;
36457;SDS011;22480;50.546;12.292;2022-10-18T05:54:48;33.67;;;21.75;;
36457;SDS011;22480;50.546;12.292;2022-10-18T05:57:13;32.13;;;21.42;;
36457;SDS011;22480;50.546;12.292;2022-10-18T05:59:39;27.27;;;18.92;;
36457;SDS011;22480;50.546;12.292;2022-10-18T06:02:05;33.55;;;18.67;;
36457;SDS011;22480;50.546;12.292;2022-10-18T06:04:31;33.47;;;20.17;;
36457;SDS011;22480;50.546;12.292;2022-10-18T06:06:56;31.40;;;19.63;;
36457;SDS011;22480;50.546;12.292;2022-10-18T06:09:22;29.70;;;18.05;;
36457;SDS011;22480;50.546;12.292;2022-10-18T06:11:48;27.83;;;18.42;;
36457;SDS011;22480;50.546;12.292;2022-10-18T06:14:13;34.92;;;19.88;;
36457;SDS011;22480;50.546;12.292;2022-10-18T06:16:39;30.60;;;20.42;;
36457;SDS011;22480;50.546;12.292;2022-10-18T06:19:05;29.90;;;19.58;;
36457;SDS011;22480;50.546;12.292;2022-10-18T06:21:31;33.55;;;22.38;;
36457;SDS011;22480;50.546;12.292;2022-10-18T06:23:57;28.35;;;20.33;;
36457;SDS011;22480;50.546;12.292;2022-10-18T06:26:24;29.40;;;20.23;;
36457;SDS011;22480;50.546;12.292;2022-10-18T06:28:50;28.75;;;21.67;;
36457;SDS011;22480;50.546;12.292;2022-10-18T06:31:16;37.63;;;26.45;;
36457;SDS011;22480;50.546;12.292;2022-10-18T06:33:42;32.92;;;23.17;;
36457;SDS011;22480;50.546;12.292;2022-10-18T06:36:10;29.50;;;20.42;;
36457;SDS011;22480;50.546;12.292;2022-10-18T06:38:41;30.80;;;22.25;;
36457;SDS011;22480;50.546;12.292;2022-10-18T06:41:07;31.75;;;21.98;;
36457;SDS011;22480;50.546;12.292;2022-10-18T06:43:33;31.92;;;22.45;;
36457;SDS011;22480;50.546;12.292;2022-10-18T06:45:59;28.45;;;20.25;;
36457;SDS011;22480;50.546;12.292;2022-10-18T06:48:27;32.50;;;19.13;;
36457;SDS011;22480;50.546;12.292;2022-10-18T06:50:53;23.95;;;17.08;;
36457;SDS011;22480;50.546;12.292;2022-10-18T06:53:24;27.20;;;18.33;;
36457;SDS011;22480;50.546;12.292;2022-10-18T06:55:52;28.40;;;17.30;;
36457;SDS011;22480;50.546;12.292;2022-10-18T06:58:24;23.45;;;16.90;;
36457;SDS011;22480;50.546;12.292;2022-10-18T07:00:50;24.85;;;17.20;;
36457;SDS011;22480;50.546;12.292;2022-10-18T07:03:16;20.50;;;14.57;;
36457;SDS011;22480;50.546;12.292;2022-10-18T07:05:41;25.58;;;16.10;;
36457;SDS011;22480;50.546;12.292;2022-10-18T07:08:07;22.38;;;15.52;;
36457;SDS011;22480;50.546;12.292;2022-10-18T07:10:33;18.98;;;13.57;;
36457;SDS011;22480;50.546;12.292;2022-10-18T07:12:59;19.92;;;13.18;;
36457;SDS011;22480;50.546;12.292;2022-10-18T07:15:24;24.08;;;14.88;;
36457;SDS011;22480;50.546;12.292;2022-10-18T07:17:50;20.88;;;13.18;;
36457;SDS011;22480;50.546;12.292;2022-10-18T07:20:16;16.48;;;13.30;;
36457;SDS011;22480;50.546;12.292;2022-10-18T07:22:41;15.65;;;11.43;;
36457;SDS011;22480;50.546;12.292;2022-10-18T07:25:07;23.10;;;18.70;;
36457;SDS011;22480;50.546;12.292;2022-10-18T07:27:37;21.33;;;15.98;;
36457;SDS011;22480;50.546;12.292;2022-10-18T07:30:06;23.70;;;14.00;;
36457;SDS011;22480;50.546;12.292;2022-10-18T07:32:34;15.50;;;11.02;;
36457;SDS011;22480;50.546;12.292;2022-10-18T07:35:00;13.57;;;10.60;;
36457;SDS011;22480;50.546;12.292;2022-10-18T07:37:27;19.15;;;11.57;;
36457;SDS011;22480;50.546;12.292;2022-10-18T07:39:53;12.95;;;9.85;;
36457;SDS011;22480;50.546;12.292;2022-10-18T07:42:19;12.80;;;8.75;;
36457;SDS011;22480;50.546;12.292;2022-10-18T07:44:45;11.27;;;8.02;;
36457;SDS011;22480;50.546;12.292;2022-10-18T07:47:10;11.02;;;8.07;;
36457;SDS011;22480;50.546;12.292;2022-10-18T07:49:36;10.90;;;8.63;;
36457;SDS011;22480;50.546;12.292;2022-10-18T07:52:02;12.35;;;8.73;;
36457;SDS011;22480;50.546;12.292;2022-10-18T07:54:28;22.80;;;13.85;;
36457;SDS011;22480;50.546;12.292;2022-10-18T07:56:54;17.52;;;11.68;;
36457;SDS011;22480;50.546;12.292;2022-10-18T07:59:20;10.93;;;9.82;;
36457;SDS011;22480;50.546;12.292;2022-10-18T08:01:46;15.85;;;11.23;;
36457;SDS011;22480;50.546;12.292;2022-10-18T08:04:12;13.00;;;9.48;;
36457;SDS011;22480;50.546;12.292;2022-10-18T08:06:38;12.90;;;10.18;;
36457;SDS011;22480;50.546;12.292;2022-10-18T08:09:04;16.42;;;10.13;;
36457;SDS011;22480;50.546;12.292;2022-10-18T08:11:30;12.73;;;9.38;;
36457;SDS011;22480;50.546;12.292;2022-10-18T08:13:55;12.27;;;9.13;;
36457;SDS011;22480;50.546;12.292;2022-10-18T08:16:22;13.57;;;9.63;;
36457;SDS011;22480;50.546;12.292;2022-10-18T08:18:50;11.90;;;8.55;;
36457;SDS011;22480;50.546;12.292;2022-10-18T08:21:16;11.98;;;7.80;;
36457;SDS011;22480;50.546;12.292;2022-10-18T08:23:43;8.45;;;7.10;;
36457;SDS011;22480;50.546;12.292;2022-10-18T08:26:10;13.40;;;8.20;;
36457;SDS011;22480;50.546;12.292;2022-10-18T08:28:38;10.93;;;8.80;;
36457;SDS011;22480;50.546;12.292;2022-10-18T08:31:05;15.73;;;7.93;;
36457;SDS011;22480;50.546;12.292;2022-10-18T08:33:34;9.25;;;7.50;;
36457;SDS011;22480;50.546;12.292;2022-10-18T08:36:04;9.32;;;6.97;;
36457;SDS011;22480;50.546;12.292;2022-10-18T08:38:32;9.25;;;6.72;;
36457;SDS011;22480;50.546;12.292;2022-10-18T08:41:01;7.35;;;5.35;;
36457;SDS011;22480;50.546;12.292;2022-10-18T08:46:21;6.57;;;4.65;;
36457;SDS011;22480;50.546;12.292;2022-10-18T08:48:47;11.05;;;5.28;;
36457;SDS011;22480;50.546;12.292;2022-10-18T08:51:26;5.90;;;4.97;;
36457;SDS011;22480;50.546;12.292;2022-10-18T08:54:03;8.90;;;4.72;;
36457;SDS011;22480;50.546;12.292;2022-10-18T08:56:34;5.63;;;4.18;;
36457;SDS011;22480;50.546;12.292;2022-10-18T08:59:02;5.95;;;4.13;;
36457;SDS011;22480;50.546;12.292;2022-10-18T09:07:15;6.93;;;3.90;;
36457;SDS011;22480;50.546;12.292;2022-10-18T09:10:13;7.13;;;4.60;;
36457;SDS011;22480;50.546;12.292;2022-10-18T09:20:59;8.00;;;4.18;;
36457;SDS011;22480;50.546;12.292;2022-10-18T09:26:18;10.82;;;4.35;;
36457;SDS011;22480;50.546;12.292;2022-10-18T09:29:07;6.38;;;4.20;;
36457;SDS011;22480;50.546;12.292;2022-10-18T09:34:49;5.32;;;4.80;;
36457;SDS011;22480;50.546;12.292;2022-10-18T09:37:31;7.07;;;4.80;;
36457;SDS011;22480;50.546;12.292;2022-10-18T09:40:45;7.50;;;5.60;;
36457;SDS011;22480;50.546;12.292;2022-10-18T09:42:53;6.75;;;5.32;;
36457;SDS011;22480;50.546;12.292;2022-10-18T09:48:03;9.98;;;5.88;;
36457;SDS011;22480;50.546;12.292;2022-10-18T09:55:54;8.75;;;5.88;;
36457;SDS011;22480;50.546;12.292;2022-10-18T09:58:41;10.38;;;6.63;;
36457;SDS011;22480;50.546;12.292;2022-10-18T10:01:20;10.98;;;6.70;;
36457;SDS011;22480;50.546;12.292;2022-10-18T10:03:52;9.18;;;6.65;;
36457;SDS011;22480;50.546;12.292;2022-10-18T10:09:07;10.50;;;6.15;;
36457;SDS011;22480;50.546;12.292;2022-10-18T10:11:49;9.70;;;5.30;;
36457;SDS011;22480;50.546;12.292;2022-10-18T10:19:26;7.63;;;4.45;;
36457;SDS011;22480;50.546;12.292;2022-10-18T10:24:23;6.13;;;3.80;;
36457;SDS011;22480;50.546;12.292;2022-10-18T10:27:03;5.68;;;3.20;;
36457;SDS011;22480;50.546;12.292;2022-10-18T10:29:51;6.57;;;4.57;;
36457;SDS011;22480;50.546;12.292;2022-10-18T10:32:21;6.50;;;3.38;;
36457;SDS011;22480;50.546;12.292;2022-10-18T10:34:49;6.13;;;3.20;;
36457;SDS011;22480;50.546;12.292;2022-10-18T10:37:28;5.60;;;3.35;;
36457;SDS011;22480;50.546;12.292;2022-10-18T10:40:07;10.32;;;4.03;;
36457;SDS011;22480;50.546;12.292;2022-10-18T10:45:26;5.05;;;4.55;;
36457;SDS011;22480;50.546;12.292;2022-10-18T10:48:03;5.93;;;3.60;;
36457;SDS011;22480;50.546;12.292;2022-10-18T10:50:54;3.35;;;3.05;;
36457;SDS011;22480;50.546;12.292;2022-10-18T10:56:02;3.08;;;2.47;;
36457;SDS011;22480;50.546;12.292;2022-10-18T10:58:34;3.95;;;2.58;;
36457;SDS011;22480;50.546;12.292;2022-10-18T11:01:20;3.72;;;2.42;;
36457;SDS011;22480;50.546;12.292;2022-10-18T11:03:49;2.55;;;2.33;;
36457;SDS011;22480;50.546;12.292;2022-10-18T11:09:08;3.78;;;2.33;;
36457;SDS011;22480;50.546;12.292;2022-10-18T11:11:44;2.80;;;2.20;;
36457;SDS011;22480;50.546;12.292;2022-10-18T11:14:20;3.85;;;2.42;;
36457;SDS011;22480;50.546;12.292;2022-10-18T11:22:04;3.60;;;2.80;;
36457;SDS011;22480;50.546;12.292;2022-10-18T11:24:34;4.05;;;3.42;;
36457;SDS011;22480;50.546;12.292;2022-10-18T11:29:42;6.18;;;5.43;;
36457;SDS011;22480;50.546;12.292;2022-10-18T11:32:38;7.45;;;6.20;;
36457;SDS011;22480;50.546;12.292;2022-10-18T11:35:31;9.82;;;7.00;;
36457;SDS011;22480;50.546;12.292;2022-10-18T11:43:30;11.20;;;8.45;;
36457;SDS011;22480;50.546;12.292;2022-10-18T11:52:08;9.32;;;7.63;;
36457;SDS011;22480;50.546;12.292;2022-10-18T12:01:00;8.55;;;6.63;;
36457;SDS011;22480;50.546;12.292;2022-10-18T12:06:16;7.80;;;6.65;;
36457;SDS011;22480;50.546;12.292;2022-10-18T12:08:46;8.90;;;7.20;;
36457;SDS011;22480;50.546;12.292;2022-10-18T12:11:15;7.47;;;6.68;;
36457;SDS011;22480;50.546;12.292;2022-10-18T12:13:53;8.45;;;7.35;;
36457;SDS011;22480;50.546;12.292;2022-10-18T12:16:26;10.00;;;7.15;;
36457;SDS011;22480;50.546;12.292;2022-10-18T12:18:58;8.93;;;7.65;;
36457;SDS011;22480;50.546;12.292;2022-10-18T12:21:27;11.98;;;9.32;;
36457;SDS011;22480;50.546;12.292;2022-10-18T12:23:57;12.00;;;9.93;;
36457;SDS011;22480;50.546;12.292;2022-10-18T12:26:26;14.07;;;10.90;;
36457;SDS011;22480;50.546;12.292;2022-10-18T12:31:55;15.20;;;12.18;;
36457;SDS011;22480;50.546;12.292;2022-10-18T12:40:21;11.77;;;10.00;;
36457;SDS011;22480;50.546;12.292;2022-10-18T12:42:53;14.45;;;10.90;;
36457;SDS011;22480;50.546;12.292;2022-10-18T12:45:24;13.68;;;10.73;;
36457;SDS011;22480;50.546;12.292;2022-10-18T12:48:06;13.55;;;11.35;;
36457;SDS011;22480;50.546;12.292;2022-10-18T12:50:46;12.18;;;10.80;;
36457;SDS011;22480;50.546;12.292;2022-10-18T12:53:29;11.15;;;9.38;;
36457;SDS011;22480;50.546;12.292;2022-10-18T12:56:31;12.23;;;9.50;;
36457;SDS011;22480;50.546;12.292;2022-10-18T13:09:23;8.85;;;7.75;;
36457;SDS011;22480;50.546;12.292;2022-10-18T13:11:49;7.60;;;6.80;;
36457;SDS011;22480;50.546;12.292;2022-10-18T13:19:38;5.40;;;4.25;;
36457;SDS011;22480;50.546;12.292;2022-10-18T13:36:01;3.03;;;2.72;;
36457;SDS011;22480;50.546;12.292;2022-10-18T13:41:22;2.50;;;2.30;;
36457;SDS011;22480;50.546;12.292;2022-10-18T14:02:45;2.95;;;2.63;;
36457;SDS011;22480;50.546;12.292;2022-10-18T14:05:19;3.65;;;2.75;;
36457;SDS011;22480;50.546;12.292;2022-10-18T14:08:02;2.80;;;2.60;;
36457;SDS011;22480;50.546;12.292;2022-10-18T14:10:38;3.10;;;2.67;;
36457;SDS011;22480;50.546;12.292;2022-10-18T14:13:05;2.75;;;2.55;;
36457;SDS011;22480;50.546;12.292;2022-10-18T14:15:40;2.70;;;2.50;;
36457;SDS011;22480;50.546;12.292;2022-10-18T14:18:14;3.28;;;2.60;;
36457;SDS011;22480;50.546;12.292;2022-10-18T14:20:48;3.65;;;3.10;;
36457;SDS011;22480;50.546;12.292;2022-10-18T14:23:20;3.38;;;3.17;;
36457;SDS011;22480;50.546;12.292;2022-10-18T14:25:48;4.03;;;3.70;;
36457;SDS011;22480;50.546;12.292;2022-10-18T14:28:15;3.90;;;3.60;;
36457;SDS011;22480;50.546;12.292;2022-10-18T14:33:35;5.03;;;4.63;;
36457;SDS011;22480;50.546;12.292;2022-10-18T14:36:11;5.18;;;4.68;;
36457;SDS011;22480;50.546;12.292;2022-10-18T14:38:57;5.88;;;5.28;;
36457;SDS011;22480;50.546;12.292;2022-10-18T14:46:46;9.23;;;8.32;;
36457;SDS011;22480;50.546;12.292;2022-10-18T14:49:24;7.95;;;7.25;;
36457;SDS011;22480;50.546;12.292;2022-10-18T14:51:51;7.55;;;6.85;;
36457;SDS011;22480;50.546;12.292;2022-10-18T14:54:22;9.05;;;7.57;;
36457;SDS011;22480;50.546;12.292;2022-10-18T14:56:51;6.68;;;6.13;;
36457;SDS011;22480;50.546;12.292;2022-10-18T14:59:18;8.18;;;7.38;;
36457;SDS011;22480;50.546;12.292;2022-10-18T15:01:51;8.15;;;7.40;;
36457;SDS011;22480;50.546;12.292;2022-10-18T15:04:19;8.90;;;8.05;;
36457;SDS011;22480;50.546;12.292;2022-10-18T15:06:45;15.27;;;12.75;;
36457;SDS011;22480;50.546;12.292;2022-10-18T15:09:13;13.98;;;12.65;;
36457;SDS011;22480;50.546;12.292;2022-10-18T15:11:44;13.85;;;12.55;;
36457;SDS011;22480;50.546;12.292;2022-10-18T15:14:12;13.02;;;11.73;;
36457;SDS011;22480;50.546;12.292;2022-10-18T15:19:21;15.77;;;9.65;;
36457;SDS011;22480;50.546;12.292;2022-10-18T15:21:55;9.75;;;8.75;;
36457;SDS011;22480;50.546;12.292;2022-10-18T15:26:52;9.25;;;8.35;;
36457;SDS011;22480;50.546;12.292;2022-10-18T15:29:19;8.70;;;7.80;;
36457;SDS011;22480;50.546;12.292;2022-10-18T15:31:46;7.72;;;6.93;;
36457;SDS011;22480;50.546;12.292;2022-10-18T15:36:39;8.52;;;7.72;;
36457;SDS011;22480;50.546;12.292;2022-10-18T15:39:06;7.95;;;7.25;;
36457;SDS011;22480;50.546;12.292;2022-10-18T15:41:43;9.63;;;8.00;;
36457;SDS011;22480;50.546;12.292;2022-10-18T15:46:53;8.18;;;7.32;;
36457;SDS011;22480;50.546;12.292;2022-10-18T15:54:46;7.15;;;6.45;;
36457;SDS011;22480;50.546;12.292;2022-10-18T15:57:12;8.23;;;7.43;;
36457;SDS011;22480;50.546;12.292;2022-10-18T15:59:48;14.68;;;12.20;;
36457;SDS011;22480;50.546;12.292;2022-10-18T16:02:14;11.60;;;10.40;;
36457;SDS011;22480;50.546;12.292;2022-10-18T16:04:40;12.80;;;11.45;;
36457;SDS011;22480;50.546;12.292;2022-10-18T16:07:08;13.25;;;10.35;;
36457;SDS011;22480;50.546;12.292;2022-10-18T16:09:35;11.48;;;9.77;;
36457;SDS011;22480;50.546;12.292;2022-10-18T16:12:01;12.80;;;11.50;;
36457;SDS011;22480;50.546;12.292;2022-10-18T16:14:28;12.98;;;11.65;;
36457;SDS011;22480;50.546;12.292;2022-10-18T16:16:55;13.25;;;11.82;;
36457;SDS011;22480;50.546;12.292;2022-10-18T16:19:24;23.40;;;19.52;;
36457;SDS011;22480;50.546;12.292;2022-10-18T16:21:51;20.42;;;16.40;;
36457;SDS011;22480;50.546;12.292;2022-10-18T16:24:18;14.55;;;12.85;;
36457;SDS011;22480;50.546;12.292;2022-10-18T16:26:44;15.32;;;12.57;;
36457;SDS011;22480;50.546;12.292;2022-10-18T16:29:13;14.02;;;12.60;;
36457;SDS011;22480;50.546;12.292;2022-10-18T16:31:42;13.07;;;11.68;;
36457;SDS011;22480;50.546;12.292;2022-10-18T16:34:08;17.17;;;12.65;;
36457;SDS011;22480;50.546;12.292;2022-10-18T16:36:35;13.95;;;12.55;;
36457;SDS011;22480;50.546;12.292;2022-10-18T16:39:02;12.98;;;11.55;;
36457;SDS011;22480;50.546;12.292;2022-10-18T16:43:57;17.63;;;13.52;;
36457;SDS011;22480;50.546;12.292;2022-10-18T16:46:24;15.05;;;12.60;;
36457;SDS011;22480;50.546;12.292;2022-10-18T16:48:55;15.13;;;13.52;;
36457;SDS011;22480;50.546;12.292;2022-10-18T16:51:21;17.50;;;13.55;;
36457;SDS011;22480;50.546;12.292;2022-10-18T16:53:47;18.13;;;16.13;;
36457;SDS011;22480;50.546;12.292;2022-10-18T16:56:16;26.52;;;21.48;;
36457;SDS011;22480;50.546;12.292;2022-10-18T16:58:54;31.92;;;26.80;;
36457;SDS011;22480;50.546;12.292;2022-10-18T17:01:21;27.48;;;22.85;;
36457;SDS011;22480;50.546;12.292;2022-10-18T17:03:48;21.73;;;17.10;;
36457;SDS011;22480;50.546;12.292;2022-10-18T17:06:22;21.35;;;16.40;;
36457;SDS011;22480;50.546;12.292;2022-10-18T17:08:50;19.73;;;15.98;;
36457;SDS011;22480;50.546;12.292;2022-10-18T17:11:17;17.77;;;14.95;;
36457;SDS011;22480;50.546;12.292;2022-10-18T17:13:44;17.55;;;14.57;;
36457;SDS011;22480;50.546;12.292;2022-10-18T17:16:27;17.15;;;14.77;;
36457;SDS011;22480;50.546;12.292;2022-10-18T17:18:55;22.45;;;17.75;;
36457;SDS011;22480;50.546;12.292;2022-10-18T17:21:22;28.38;;;23.02;;
36457;SDS011;22480;50.546;12.292;2022-10-18T17:23:48;31.45;;;23.33;;
36457;SDS011;22480;50.546;12.292;2022-10-18T17:26:15;33.22;;;28.48;;
36457;SDS011;22480;50.546;12.292;2022-10-18T17:28:43;31.10;;;27.42;;
36457;SDS011;22480;50.546;12.292;2022-10-18T17:31:09;27.38;;;21.85;;
36457;SDS011;22480;50.546;12.292;2022-10-18T17:33:35;20.80;;;17.73;;
36457;SDS011;22480;50.546;12.292;2022-10-18T17:36:01;21.17;;;17.90;;
36457;SDS011;22480;50.546;12.292;2022-10-18T17:38:27;23.63;;;19.25;;
36457;SDS011;22480;50.546;12.292;2022-10-18T17:40:53;21.75;;;16.77;;
36457;SDS011;22480;50.546;12.292;2022-10-18T17:43:19;22.27;;;16.33;;
36457;SDS011;22480;50.546;12.292;2022-10-18T17:45:48;23.52;;;18.05;;